sensor_id;sensor_type;location;lat;lon;timestamp;P1;durP1;ratioP1;P2;durP2;ratioP2
59938;SDS011;45801;51.810;19.444;2023-07-09T00:01:53;8.50;;;4.60;;
59938;SDS011;45801;51.810;19.444;2023-07-09T00:04:20;8.80;;;4.50;;
59938;SDS011;45801;51.810;19.444;2023-07-09T00:06:49;8.00;;;4.30;;
59938;SDS011;45801;51.810;19.444;2023-07-09T00:09:19;8.00;;;4.70;;
59938;SDS011;45801;51.810;19.444;2023-07-09T00:11:47;8.80;;;4.70;;
59938;SDS011;45801;51.810;19.444;2023-07-09T00:14:16;8.40;;;5.20;;
59938;SDS011;45801;51.810;19.444;2023-07-09T00:16:43;9.30;;;4.70;;
59938;SDS011;45801;51.810;19.444;2023-07-09T00:19:21;9.40;;;4.70;;
59938;SDS011;45801;51.810;19.444;2023-07-09T00:21:55;8.30;;;4.40;;
59938;SDS011;45801;51.810;19.444;2023-07-09T00:24:22;9.80;;;4.70;;
59938;SDS011;45801;51.810;19.444;2023-07-09T00:26:48;8.80;;;4.80;;
59938;SDS011;45801;51.810;19.444;2023-07-09T00:29:16;8.60;;;5.00;;
59938;SDS011;45801;51.810;19.444;2023-07-09T00:31:44;8.60;;;4.70;;
59938;SDS011;45801;51.810;19.444;2023-07-09T00:34:12;10.00;;;5.50;;
59938;SDS011;45801;51.810;19.444;2023-07-09T00:36:41;8.90;;;5.00;;
59938;SDS011;45801;51.810;19.444;2023-07-09T00:39:14;10.70;;;5.00;;
59938;SDS011;45801;51.810;19.444;2023-07-09T00:41:44;7.80;;;4.80;;
59938;SDS011;45801;51.810;19.444;2023-07-09T00:44:33;8.10;;;4.90;;
59938;SDS011;45801;51.810;19.444;2023-07-09T00:49:31;9.40;;;4.90;;
59938;SDS011;45801;51.810;19.444;2023-07-09T00:52:01;9.30;;;5.40;;
59938;SDS011;45801;51.810;19.444;2023-07-09T00:54:38;10.00;;;5.70;;
59938;SDS011;45801;51.810;19.444;2023-07-09T00:57:12;8.60;;;5.40;;
59938;SDS011;45801;51.810;19.444;2023-07-09T00:59:53;9.00;;;5.10;;
59938;SDS011;45801;51.810;19.444;2023-07-09T01:02:26;10.10;;;5.50;;
59938;SDS011;45801;51.810;19.444;2023-07-09T01:04:58;8.60;;;5.20;;
59938;SDS011;45801;51.810;19.444;2023-07-09T01:07:30;8.80;;;5.30;;
59938;SDS011;45801;51.810;19.444;2023-07-09T01:09:57;9.00;;;4.90;;
59938;SDS011;45801;51.810;19.444;2023-07-09T01:12:23;9.80;;;4.80;;
59938;SDS011;45801;51.810;19.444;2023-07-09T01:14:52;9.30;;;5.20;;
59938;SDS011;45801;51.810;19.444;2023-07-09T01:17:25;9.50;;;5.90;;
59938;SDS011;45801;51.810;19.444;2023-07-09T01:19:54;9.00;;;5.50;;
59938;SDS011;45801;51.810;19.444;2023-07-09T01:22:22;10.00;;;5.80;;
59938;SDS011;45801;51.810;19.444;2023-07-09T01:24:51;9.30;;;5.40;;
59938;SDS011;45801;51.810;19.444;2023-07-09T01:27:23;8.80;;;5.60;;
59938;SDS011;45801;51.810;19.444;2023-07-09T01:30:32;10.70;;;5.60;;
59938;SDS011;45801;51.810;19.444;2023-07-09T01:32:59;9.50;;;5.40;;
59938;SDS011;45801;51.810;19.444;2023-07-09T01:35:28;10.40;;;6.20;;
59938;SDS011;45801;51.810;19.444;2023-07-09T01:37:57;11.10;;;5.30;;
59938;SDS011;45801;51.810;19.444;2023-07-09T01:40:25;8.30;;;5.20;;
59938;SDS011;45801;51.810;19.444;2023-07-09T01:42:54;10.00;;;5.90;;
59938;SDS011;45801;51.810;19.444;2023-07-09T01:45:22;9.50;;;5.80;;
59938;SDS011;45801;51.810;19.444;2023-07-09T01:47:48;8.40;;;5.30;;
59938;SDS011;45801;51.810;19.444;2023-07-09T01:50:15;10.10;;;6.10;;
59938;SDS011;45801;51.810;19.444;2023-07-09T01:52:43;10.10;;;5.50;;
59938;SDS011;45801;51.810;19.444;2023-07-09T01:55:12;9.70;;;5.60;;
59938;SDS011;45801;51.810;19.444;2023-07-09T01:57:43;9.70;;;5.90;;
59938;SDS011;45801;51.810;19.444;2023-07-09T02:00:10;9.80;;;5.60;;
59938;SDS011;45801;51.810;19.444;2023-07-09T02:02:41;9.30;;;5.40;;
59938;SDS011;45801;51.810;19.444;2023-07-09T02:05:10;10.50;;;5.50;;
59938;SDS011;45801;51.810;19.444;2023-07-09T02:07:39;9.10;;;5.40;;
59938;SDS011;45801;51.810;19.444;2023-07-09T02:10:06;10.40;;;5.50;;
59938;SDS011;45801;51.810;19.444;2023-07-09T02:12:33;8.10;;;5.00;;
59938;SDS011;45801;51.810;19.444;2023-07-09T02:15:00;8.80;;;5.40;;
59938;SDS011;45801;51.810;19.444;2023-07-09T02:17:27;7.90;;;5.20;;
59938;SDS011;45801;51.810;19.444;2023-07-09T02:19:53;9.10;;;5.30;;
59938;SDS011;45801;51.810;19.444;2023-07-09T02:22:20;8.10;;;5.40;;
59938;SDS011;45801;51.810;19.444;2023-07-09T02:24:46;9.00;;;5.30;;
59938;SDS011;45801;51.810;19.444;2023-07-09T02:27:15;8.20;;;5.00;;
59938;SDS011;45801;51.810;19.444;2023-07-09T02:29:42;11.70;;;5.50;;
59938;SDS011;45801;51.810;19.444;2023-07-09T02:32:09;9.60;;;5.10;;
59938;SDS011;45801;51.810;19.444;2023-07-09T02:34:43;8.70;;;5.40;;
59938;SDS011;45801;51.810;19.444;2023-07-09T02:37:15;9.30;;;5.20;;
59938;SDS011;45801;51.810;19.444;2023-07-09T02:39:45;10.50;;;5.40;;
59938;SDS011;45801;51.810;19.444;2023-07-09T02:42:12;8.00;;;4.80;;
59938;SDS011;45801;51.810;19.444;2023-07-09T02:44:41;7.90;;;5.00;;
59938;SDS011;45801;51.810;19.444;2023-07-09T02:47:08;8.30;;;5.20;;
59938;SDS011;45801;51.810;19.444;2023-07-09T02:49:36;9.30;;;5.60;;
59938;SDS011;45801;51.810;19.444;2023-07-09T02:52:03;8.60;;;4.90;;
59938;SDS011;45801;51.810;19.444;2023-07-09T02:54:30;9.70;;;5.20;;
59938;SDS011;45801;51.810;19.444;2023-07-09T02:56:57;8.30;;;4.90;;
59938;SDS011;45801;51.810;19.444;2023-07-09T02:59:25;8.80;;;4.90;;
59938;SDS011;45801;51.810;19.444;2023-07-09T03:01:53;10.20;;;5.30;;
59938;SDS011;45801;51.810;19.444;2023-07-09T03:04:19;8.90;;;5.00;;
59938;SDS011;45801;51.810;19.444;2023-07-09T03:06:48;9.90;;;5.00;;
59938;SDS011;45801;51.810;19.444;2023-07-09T03:09:15;9.00;;;4.90;;
59938;SDS011;45801;51.810;19.444;2023-07-09T03:11:42;8.80;;;5.10;;
59938;SDS011;45801;51.810;19.444;2023-07-09T03:14:08;9.10;;;5.00;;
59938;SDS011;45801;51.810;19.444;2023-07-09T03:16:35;8.80;;;4.90;;
59938;SDS011;45801;51.810;19.444;2023-07-09T03:19:02;8.30;;;5.30;;
59938;SDS011;45801;51.810;19.444;2023-07-09T03:21:30;7.80;;;4.50;;
59938;SDS011;45801;51.810;19.444;2023-07-09T03:23:58;8.20;;;4.80;;
59938;SDS011;45801;51.810;19.444;2023-07-09T03:26:25;8.90;;;5.20;;
59938;SDS011;45801;51.810;19.444;2023-07-09T03:28:52;9.20;;;4.80;;
59938;SDS011;45801;51.810;19.444;2023-07-09T03:31:20;8.40;;;4.70;;
59938;SDS011;45801;51.810;19.444;2023-07-09T03:33:47;9.40;;;4.70;;
59938;SDS011;45801;51.810;19.444;2023-07-09T03:36:15;8.90;;;4.40;;
59938;SDS011;45801;51.810;19.444;2023-07-09T03:38:42;9.40;;;5.10;;
59938;SDS011;45801;51.810;19.444;2023-07-09T03:41:09;9.80;;;5.10;;
59938;SDS011;45801;51.810;19.444;2023-07-09T03:43:35;8.00;;;4.40;;
59938;SDS011;45801;51.810;19.444;2023-07-09T03:46:02;11.70;;;5.10;;
59938;SDS011;45801;51.810;19.444;2023-07-09T03:48:28;7.20;;;4.50;;
59938;SDS011;45801;51.810;19.444;2023-07-09T03:50:55;8.50;;;4.10;;
59938;SDS011;45801;51.810;19.444;2023-07-09T03:53:21;8.10;;;4.20;;
59938;SDS011;45801;51.810;19.444;2023-07-09T03:55:51;9.00;;;4.30;;
59938;SDS011;45801;51.810;19.444;2023-07-09T03:58:23;8.80;;;4.50;;
59938;SDS011;45801;51.810;19.444;2023-07-09T04:00:50;7.40;;;4.40;;
59938;SDS011;45801;51.810;19.444;2023-07-09T04:03:16;8.10;;;4.10;;
59938;SDS011;45801;51.810;19.444;2023-07-09T04:05:43;9.70;;;4.40;;
59938;SDS011;45801;51.810;19.444;2023-07-09T04:08:09;7.80;;;4.50;;
59938;SDS011;45801;51.810;19.444;2023-07-09T04:10:36;9.90;;;4.80;;
59938;SDS011;45801;51.810;19.444;2023-07-09T04:13:03;8.40;;;4.70;;
59938;SDS011;45801;51.810;19.444;2023-07-09T04:15:29;9.50;;;4.30;;
59938;SDS011;45801;51.810;19.444;2023-07-09T04:17:55;8.00;;;4.10;;
59938;SDS011;45801;51.810;19.444;2023-07-09T04:20:22;8.90;;;4.70;;
59938;SDS011;45801;51.810;19.444;2023-07-09T04:22:48;7.80;;;4.00;;
59938;SDS011;45801;51.810;19.444;2023-07-09T04:25:15;8.80;;;4.50;;
59938;SDS011;45801;51.810;19.444;2023-07-09T04:27:43;7.40;;;4.20;;
59938;SDS011;45801;51.810;19.444;2023-07-09T04:30:11;7.70;;;4.00;;
59938;SDS011;45801;51.810;19.444;2023-07-09T04:32:41;8.50;;;4.30;;
59938;SDS011;45801;51.810;19.444;2023-07-09T04:35:10;8.90;;;4.40;;
59938;SDS011;45801;51.810;19.444;2023-07-09T04:37:38;7.80;;;4.20;;
59938;SDS011;45801;51.810;19.444;2023-07-09T04:40:06;8.40;;;4.30;;
59938;SDS011;45801;51.810;19.444;2023-07-09T04:42:36;7.60;;;3.70;;
59938;SDS011;45801;51.810;19.444;2023-07-09T04:45:05;7.90;;;4.00;;
59938;SDS011;45801;51.810;19.444;2023-07-09T04:47:33;7.50;;;3.70;;
59938;SDS011;45801;51.810;19.444;2023-07-09T04:50:00;6.20;;;3.40;;
59938;SDS011;45801;51.810;19.444;2023-07-09T04:52:26;7.30;;;3.90;;
59938;SDS011;45801;51.810;19.444;2023-07-09T04:54:53;9.10;;;4.00;;
59938;SDS011;45801;51.810;19.444;2023-07-09T04:57:19;9.30;;;3.70;;
59938;SDS011;45801;51.810;19.444;2023-07-09T04:59:46;8.20;;;3.90;;
59938;SDS011;45801;51.810;19.444;2023-07-09T05:02:12;8.00;;;3.80;;
59938;SDS011;45801;51.810;19.444;2023-07-09T05:04:39;6.40;;;3.50;;
59938;SDS011;45801;51.810;19.444;2023-07-09T05:07:05;7.20;;;3.70;;
59938;SDS011;45801;51.810;19.444;2023-07-09T05:09:33;10.70;;;3.70;;
59938;SDS011;45801;51.810;19.444;2023-07-09T05:11:59;8.60;;;3.60;;
59938;SDS011;45801;51.810;19.444;2023-07-09T05:14:27;7.80;;;3.50;;
59938;SDS011;45801;51.810;19.444;2023-07-09T05:16:55;7.60;;;4.00;;
59938;SDS011;45801;51.810;19.444;2023-07-09T05:19:21;8.80;;;4.20;;
59938;SDS011;45801;51.810;19.444;2023-07-09T05:21:48;6.00;;;3.30;;
59938;SDS011;45801;51.810;19.444;2023-07-09T05:24:14;7.20;;;3.70;;
59938;SDS011;45801;51.810;19.444;2023-07-09T05:26:41;7.80;;;3.80;;
59938;SDS011;45801;51.810;19.444;2023-07-09T05:29:07;7.90;;;3.60;;
59938;SDS011;45801;51.810;19.444;2023-07-09T05:31:34;7.80;;;3.60;;
59938;SDS011;45801;51.810;19.444;2023-07-09T05:34:13;7.00;;;4.00;;
59938;SDS011;45801;51.810;19.444;2023-07-09T05:36:40;8.60;;;4.00;;
59938;SDS011;45801;51.810;19.444;2023-07-09T05:39:07;7.60;;;3.50;;
59938;SDS011;45801;51.810;19.444;2023-07-09T05:41:34;7.50;;;3.70;;
59938;SDS011;45801;51.810;19.444;2023-07-09T05:44:00;6.70;;;3.60;;
59938;SDS011;45801;51.810;19.444;2023-07-09T05:46:27;7.80;;;3.50;;
59938;SDS011;45801;51.810;19.444;2023-07-09T05:48:53;8.40;;;4.00;;
59938;SDS011;45801;51.810;19.444;2023-07-09T05:51:20;7.20;;;3.80;;
59938;SDS011;45801;51.810;19.444;2023-07-09T05:53:47;8.00;;;3.80;;
59938;SDS011;45801;51.810;19.444;2023-07-09T05:56:14;7.80;;;3.60;;
59938;SDS011;45801;51.810;19.444;2023-07-09T05:58:41;8.80;;;4.10;;
59938;SDS011;45801;51.810;19.444;2023-07-09T06:01:08;6.80;;;3.40;;
59938;SDS011;45801;51.810;19.444;2023-07-09T06:03:34;8.00;;;3.90;;
59938;SDS011;45801;51.810;19.444;2023-07-09T06:06:00;8.60;;;4.10;;
59938;SDS011;45801;51.810;19.444;2023-07-09T06:08:27;7.90;;;4.20;;
59938;SDS011;45801;51.810;19.444;2023-07-09T06:10:57;7.60;;;3.60;;
59938;SDS011;45801;51.810;19.444;2023-07-09T06:13:26;9.30;;;4.30;;
59938;SDS011;45801;51.810;19.444;2023-07-09T06:15:53;9.00;;;3.90;;
59938;SDS011;45801;51.810;19.444;2023-07-09T06:18:21;8.50;;;3.70;;
59938;SDS011;45801;51.810;19.444;2023-07-09T06:20:50;8.00;;;3.80;;
59938;SDS011;45801;51.810;19.444;2023-07-09T06:23:18;8.60;;;3.90;;
59938;SDS011;45801;51.810;19.444;2023-07-09T06:25:45;8.40;;;4.10;;
59938;SDS011;45801;51.810;19.444;2023-07-09T06:28:17;7.80;;;3.70;;
59938;SDS011;45801;51.810;19.444;2023-07-09T06:30:45;9.70;;;3.60;;
59938;SDS011;45801;51.810;19.444;2023-07-09T06:33:13;7.90;;;4.20;;
59938;SDS011;45801;51.810;19.444;2023-07-09T06:35:51;7.20;;;3.60;;
59938;SDS011;45801;51.810;19.444;2023-07-09T06:38:19;8.40;;;4.10;;
59938;SDS011;45801;51.810;19.444;2023-07-09T06:40:45;8.30;;;4.00;;
59938;SDS011;45801;51.810;19.444;2023-07-09T06:43:12;7.40;;;4.10;;
59938;SDS011;45801;51.810;19.444;2023-07-09T06:45:38;7.20;;;3.90;;
59938;SDS011;45801;51.810;19.444;2023-07-09T06:48:05;7.60;;;3.30;;
59938;SDS011;45801;51.810;19.444;2023-07-09T06:50:35;7.70;;;4.00;;
59938;SDS011;45801;51.810;19.444;2023-07-09T06:53:03;8.20;;;3.70;;
59938;SDS011;45801;51.810;19.444;2023-07-09T06:55:29;8.30;;;4.00;;
59938;SDS011;45801;51.810;19.444;2023-07-09T06:57:56;6.60;;;3.60;;
59938;SDS011;45801;51.810;19.444;2023-07-09T07:00:23;6.90;;;3.60;;
59938;SDS011;45801;51.810;19.444;2023-07-09T07:02:50;6.40;;;3.50;;
59938;SDS011;45801;51.810;19.444;2023-07-09T07:05:17;8.80;;;3.10;;
59938;SDS011;45801;51.810;19.444;2023-07-09T07:07:44;6.50;;;3.60;;
59938;SDS011;45801;51.810;19.444;2023-07-09T07:10:11;8.60;;;3.50;;
59938;SDS011;45801;51.810;19.444;2023-07-09T07:12:45;7.60;;;3.90;;
59938;SDS011;45801;51.810;19.444;2023-07-09T07:15:14;6.40;;;3.50;;
59938;SDS011;45801;51.810;19.444;2023-07-09T07:17:42;7.10;;;3.80;;
59938;SDS011;45801;51.810;19.444;2023-07-09T07:20:09;10.50;;;3.80;;
59938;SDS011;45801;51.810;19.444;2023-07-09T07:22:37;7.30;;;3.30;;
59938;SDS011;45801;51.810;19.444;2023-07-09T07:25:04;7.40;;;3.30;;
59938;SDS011;45801;51.810;19.444;2023-07-09T07:27:31;7.30;;;3.20;;
59938;SDS011;45801;51.810;19.444;2023-07-09T07:29:58;7.20;;;3.30;;
59938;SDS011;45801;51.810;19.444;2023-07-09T07:32:24;7.80;;;3.70;;
59938;SDS011;45801;51.810;19.444;2023-07-09T07:34:51;6.30;;;3.00;;
59938;SDS011;45801;51.810;19.444;2023-07-09T07:37:18;6.70;;;3.20;;
59938;SDS011;45801;51.810;19.444;2023-07-09T07:39:48;7.10;;;3.40;;
59938;SDS011;45801;51.810;19.444;2023-07-09T07:42:14;6.80;;;3.70;;
59938;SDS011;45801;51.810;19.444;2023-07-09T07:44:41;8.10;;;3.60;;
59938;SDS011;45801;51.810;19.444;2023-07-09T07:47:07;7.00;;;3.60;;
59938;SDS011;45801;51.810;19.444;2023-07-09T07:49:34;6.80;;;3.50;;
59938;SDS011;45801;51.810;19.444;2023-07-09T07:52:00;6.90;;;3.80;;
59938;SDS011;45801;51.810;19.444;2023-07-09T07:54:29;7.20;;;3.10;;
59938;SDS011;45801;51.810;19.444;2023-07-09T07:56:58;7.40;;;3.30;;
59938;SDS011;45801;51.810;19.444;2023-07-09T07:59:24;6.80;;;3.30;;
59938;SDS011;45801;51.810;19.444;2023-07-09T08:01:51;6.30;;;2.70;;
59938;SDS011;45801;51.810;19.444;2023-07-09T08:04:18;8.10;;;3.20;;
59938;SDS011;45801;51.810;19.444;2023-07-09T08:06:44;7.20;;;3.40;;
59938;SDS011;45801;51.810;19.444;2023-07-09T08:09:10;6.40;;;2.90;;
59938;SDS011;45801;51.810;19.444;2023-07-09T08:11:37;6.80;;;3.00;;
59938;SDS011;45801;51.810;19.444;2023-07-09T08:14:03;7.10;;;3.30;;
59938;SDS011;45801;51.810;19.444;2023-07-09T08:16:30;7.40;;;3.20;;
59938;SDS011;45801;51.810;19.444;2023-07-09T08:18:56;6.50;;;3.00;;
59938;SDS011;45801;51.810;19.444;2023-07-09T08:21:22;7.50;;;3.70;;
59938;SDS011;45801;51.810;19.444;2023-07-09T08:23:49;5.90;;;2.80;;
59938;SDS011;45801;51.810;19.444;2023-07-09T08:26:15;6.80;;;2.80;;
59938;SDS011;45801;51.810;19.444;2023-07-09T08:28:42;7.10;;;2.90;;
59938;SDS011;45801;51.810;19.444;2023-07-09T08:31:08;8.20;;;3.20;;
59938;SDS011;45801;51.810;19.444;2023-07-09T08:33:35;7.50;;;3.10;;
59938;SDS011;45801;51.810;19.444;2023-07-09T08:36:02;6.20;;;3.20;;
59938;SDS011;45801;51.810;19.444;2023-07-09T08:38:29;8.40;;;3.10;;
59938;SDS011;45801;51.810;19.444;2023-07-09T08:40:57;6.40;;;3.20;;
59938;SDS011;45801;51.810;19.444;2023-07-09T08:47:24;6.40;;;3.40;;
59938;SDS011;45801;51.810;19.444;2023-07-09T08:49:16;6.50;;;3.30;;
59938;SDS011;45801;51.810;19.444;2023-07-09T08:51:47;7.60;;;3.30;;
59938;SDS011;45801;51.810;19.444;2023-07-09T08:54:17;7.60;;;3.10;;
59938;SDS011;45801;51.810;19.444;2023-07-09T08:56:53;6.50;;;3.20;;
59938;SDS011;45801;51.810;19.444;2023-07-09T08:59:20;7.40;;;3.00;;
59938;SDS011;45801;51.810;19.444;2023-07-09T09:01:51;7.50;;;3.10;;
59938;SDS011;45801;51.810;19.444;2023-07-09T09:04:29;7.20;;;3.10;;
59938;SDS011;45801;51.810;19.444;2023-07-09T09:09:40;8.30;;;2.80;;
59938;SDS011;45801;51.810;19.444;2023-07-09T09:14:52;6.70;;;2.70;;
59938;SDS011;45801;51.810;19.444;2023-07-09T09:17:27;7.10;;;3.00;;
59938;SDS011;45801;51.810;19.444;2023-07-09T09:19:56;6.40;;;2.80;;
59938;SDS011;45801;51.810;19.444;2023-07-09T09:22:35;6.50;;;2.50;;
59938;SDS011;45801;51.810;19.444;2023-07-09T09:25:39;7.20;;;2.90;;
59938;SDS011;45801;51.810;19.444;2023-07-09T09:28:07;7.40;;;2.70;;
59938;SDS011;45801;51.810;19.444;2023-07-09T09:30:34;7.90;;;3.00;;
59938;SDS011;45801;51.810;19.444;2023-07-09T09:33:02;7.90;;;2.90;;
59938;SDS011;45801;51.810;19.444;2023-07-09T09:35:37;6.40;;;2.70;;
59938;SDS011;45801;51.810;19.444;2023-07-09T09:38:12;7.50;;;2.80;;
59938;SDS011;45801;51.810;19.444;2023-07-09T09:40:43;6.80;;;2.50;;
59938;SDS011;45801;51.810;19.444;2023-07-09T09:43:17;7.30;;;2.80;;
59938;SDS011;45801;51.810;19.444;2023-07-09T09:45:47;8.00;;;2.90;;
59938;SDS011;45801;51.810;19.444;2023-07-09T09:48:17;6.80;;;2.90;;
59938;SDS011;45801;51.810;19.444;2023-07-09T09:50:55;6.90;;;3.10;;
59938;SDS011;45801;51.810;19.444;2023-07-09T09:53:24;6.20;;;2.60;;
59938;SDS011;45801;51.810;19.444;2023-07-09T09:55:52;5.50;;;2.60;;
59938;SDS011;45801;51.810;19.444;2023-07-09T09:58:24;6.20;;;2.30;;
59938;SDS011;45801;51.810;19.444;2023-07-09T10:00:54;6.40;;;2.60;;
59938;SDS011;45801;51.810;19.444;2023-07-09T10:03:31;6.90;;;2.60;;
59938;SDS011;45801;51.810;19.444;2023-07-09T10:06:00;6.80;;;2.40;;
59938;SDS011;45801;51.810;19.444;2023-07-09T10:11:31;6.20;;;2.40;;
59938;SDS011;45801;51.810;19.444;2023-07-09T10:14:13;5.50;;;2.40;;
59938;SDS011;45801;51.810;19.444;2023-07-09T10:16:46;6.50;;;2.60;;
59938;SDS011;45801;51.810;19.444;2023-07-09T10:19:24;5.40;;;2.20;;
59938;SDS011;45801;51.810;19.444;2023-07-09T10:22:00;7.10;;;2.50;;
59938;SDS011;45801;51.810;19.444;2023-07-09T10:27:09;5.60;;;2.70;;
59938;SDS011;45801;51.810;19.444;2023-07-09T10:34:59;5.70;;;2.60;;
59938;SDS011;45801;51.810;19.444;2023-07-09T10:40:17;6.40;;;2.40;;
59938;SDS011;45801;51.810;19.444;2023-07-09T10:42:57;7.30;;;2.60;;
59938;SDS011;45801;51.810;19.444;2023-07-09T10:45:28;6.60;;;2.30;;
59938;SDS011;45801;51.810;19.444;2023-07-09T10:48:02;7.90;;;2.70;;
59938;SDS011;45801;51.810;19.444;2023-07-09T10:50:53;5.60;;;2.30;;
59938;SDS011;45801;51.810;19.444;2023-07-09T10:56:05;6.40;;;2.40;;
59938;SDS011;45801;51.810;19.444;2023-07-09T10:58:41;6.10;;;2.20;;
59938;SDS011;45801;51.810;19.444;2023-07-09T11:01:15;5.70;;;2.20;;
59938;SDS011;45801;51.810;19.444;2023-07-09T11:03:53;6.30;;;2.30;;
59938;SDS011;45801;51.810;19.444;2023-07-09T11:06:30;5.90;;;2.20;;
59938;SDS011;45801;51.810;19.444;2023-07-09T11:09:00;5.90;;;2.40;;
59938;SDS011;45801;51.810;19.444;2023-07-09T11:11:30;6.90;;;2.50;;
59938;SDS011;45801;51.810;19.444;2023-07-09T11:14:05;7.00;;;2.70;;
59938;SDS011;45801;51.810;19.444;2023-07-09T11:16:39;8.20;;;2.70;;
59938;SDS011;45801;51.810;19.444;2023-07-09T11:19:18;6.60;;;2.30;;
59938;SDS011;45801;51.810;19.444;2023-07-09T11:22:50;6.20;;;2.70;;
59938;SDS011;45801;51.810;19.444;2023-07-09T11:24:50;6.50;;;2.60;;
59938;SDS011;45801;51.810;19.444;2023-07-09T11:27:23;6.30;;;2.40;;
59938;SDS011;45801;51.810;19.444;2023-07-09T11:29:59;7.70;;;3.30;;
59938;SDS011;45801;51.810;19.444;2023-07-09T11:32:47;6.30;;;2.30;;
59938;SDS011;45801;51.810;19.444;2023-07-09T11:35:21;5.30;;;2.50;;
59938;SDS011;45801;51.810;19.444;2023-07-09T11:37:49;5.80;;;2.30;;
59938;SDS011;45801;51.810;19.444;2023-07-09T11:40:16;6.10;;;2.20;;
59938;SDS011;45801;51.810;19.444;2023-07-09T11:42:55;5.50;;;2.10;;
59938;SDS011;45801;51.810;19.444;2023-07-09T11:45:27;6.70;;;2.50;;
59938;SDS011;45801;51.810;19.444;2023-07-09T11:48:10;5.30;;;2.30;;
59938;SDS011;45801;51.810;19.444;2023-07-09T11:50:49;5.20;;;2.00;;
59938;SDS011;45801;51.810;19.444;2023-07-09T11:53:35;6.00;;;2.10;;
59938;SDS011;45801;51.810;19.444;2023-07-09T11:56:08;5.50;;;2.20;;
59938;SDS011;45801;51.810;19.444;2023-07-09T11:58:35;6.90;;;2.40;;
59938;SDS011;45801;51.810;19.444;2023-07-09T12:01:02;4.80;;;2.00;;
59938;SDS011;45801;51.810;19.444;2023-07-09T12:03:39;6.00;;;2.40;;
59938;SDS011;45801;51.810;19.444;2023-07-09T12:09:17;6.70;;;2.30;;
59938;SDS011;45801;51.810;19.444;2023-07-09T12:11:46;5.40;;;2.00;;
59938;SDS011;45801;51.810;19.444;2023-07-09T12:14:19;5.70;;;2.00;;
59938;SDS011;45801;51.810;19.444;2023-07-09T12:16:49;6.10;;;2.00;;
59938;SDS011;45801;51.810;19.444;2023-07-09T12:19:18;6.10;;;2.40;;
59938;SDS011;45801;51.810;19.444;2023-07-09T12:21:47;6.50;;;1.90;;
59938;SDS011;45801;51.810;19.444;2023-07-09T12:24:24;6.20;;;2.30;;
59938;SDS011;45801;51.810;19.444;2023-07-09T12:26:56;5.90;;;2.30;;
59938;SDS011;45801;51.810;19.444;2023-07-09T12:29:27;5.80;;;2.30;;
59938;SDS011;45801;51.810;19.444;2023-07-09T12:31:58;5.20;;;1.80;;
59938;SDS011;45801;51.810;19.444;2023-07-09T12:34:30;5.80;;;2.00;;
59938;SDS011;45801;51.810;19.444;2023-07-09T12:36:57;4.40;;;1.80;;
59938;SDS011;45801;51.810;19.444;2023-07-09T12:39:24;5.60;;;2.00;;
59938;SDS011;45801;51.810;19.444;2023-07-09T12:41:56;4.90;;;1.70;;
59938;SDS011;45801;51.810;19.444;2023-07-09T12:44:25;4.50;;;1.80;;
59938;SDS011;45801;51.810;19.444;2023-07-09T12:46:53;4.00;;;1.60;;
59938;SDS011;45801;51.810;19.444;2023-07-09T12:49:24;4.60;;;1.80;;
59938;SDS011;45801;51.810;19.444;2023-07-09T12:51:54;4.40;;;1.70;;
59938;SDS011;45801;51.810;19.444;2023-07-09T12:54:22;4.50;;;1.60;;
59938;SDS011;45801;51.810;19.444;2023-07-09T12:56:53;6.10;;;1.80;;
59938;SDS011;45801;51.810;19.444;2023-07-09T12:59:22;4.00;;;1.40;;
59938;SDS011;45801;51.810;19.444;2023-07-09T13:04:29;6.20;;;1.80;;
59938;SDS011;45801;51.810;19.444;2023-07-09T13:06:58;5.30;;;1.70;;
59938;SDS011;45801;51.810;19.444;2023-07-09T13:09:26;4.50;;;1.50;;
59938;SDS011;45801;51.810;19.444;2023-07-09T13:11:54;5.60;;;1.80;;
59938;SDS011;45801;51.810;19.444;2023-07-09T13:14:25;5.60;;;1.80;;
59938;SDS011;45801;51.810;19.444;2023-07-09T13:17:02;4.90;;;1.60;;
59938;SDS011;45801;51.810;19.444;2023-07-09T13:19:32;4.50;;;1.50;;
59938;SDS011;45801;51.810;19.444;2023-07-09T13:21:59;3.90;;;1.50;;
59938;SDS011;45801;51.810;19.444;2023-07-09T13:24:27;4.90;;;1.40;;
59938;SDS011;45801;51.810;19.444;2023-07-09T13:26:56;4.50;;;1.60;;
59938;SDS011;45801;51.810;19.444;2023-07-09T13:29:26;4.00;;;1.40;;
59938;SDS011;45801;51.810;19.444;2023-07-09T13:31:53;4.90;;;1.70;;
59938;SDS011;45801;51.810;19.444;2023-07-09T13:34:22;4.80;;;1.50;;
59938;SDS011;45801;51.810;19.444;2023-07-09T13:36:51;4.00;;;1.50;;
59938;SDS011;45801;51.810;19.444;2023-07-09T13:39:20;3.30;;;1.40;;
59938;SDS011;45801;51.810;19.444;2023-07-09T13:41:48;4.00;;;1.40;;
59938;SDS011;45801;51.810;19.444;2023-07-09T13:44:17;4.20;;;1.40;;
59938;SDS011;45801;51.810;19.444;2023-07-09T13:46:46;3.90;;;1.40;;
59938;SDS011;45801;51.810;19.444;2023-07-09T13:49:13;4.40;;;1.40;;
59938;SDS011;45801;51.810;19.444;2023-07-09T13:54:42;4.20;;;1.30;;
59938;SDS011;45801;51.810;19.444;2023-07-09T13:59:42;3.30;;;1.10;;
59938;SDS011;45801;51.810;19.444;2023-07-09T14:02:29;4.50;;;1.70;;
59938;SDS011;45801;51.810;19.444;2023-07-09T14:04:58;3.90;;;1.30;;
59938;SDS011;45801;51.810;19.444;2023-07-09T14:07:26;4.10;;;1.30;;
59938;SDS011;45801;51.810;19.444;2023-07-09T14:09:59;3.80;;;1.30;;
59938;SDS011;45801;51.810;19.444;2023-07-09T14:12:27;3.40;;;1.20;;
59938;SDS011;45801;51.810;19.444;2023-07-09T14:14:55;5.60;;;1.40;;
59938;SDS011;45801;51.810;19.444;2023-07-09T14:17:25;3.20;;;1.20;;
59938;SDS011;45801;51.810;19.444;2023-07-09T14:19:52;2.60;;;1.10;;
59938;SDS011;45801;51.810;19.444;2023-07-09T14:24:48;3.60;;;1.40;;
59938;SDS011;45801;51.810;19.444;2023-07-09T14:27:15;3.50;;;1.10;;
59938;SDS011;45801;51.810;19.444;2023-07-09T14:29:41;4.30;;;1.20;;
59938;SDS011;45801;51.810;19.444;2023-07-09T14:32:20;4.00;;;1.10;;
59938;SDS011;45801;51.810;19.444;2023-07-09T14:35:03;3.60;;;1.10;;
59938;SDS011;45801;51.810;19.444;2023-07-09T14:37:42;3.20;;;1.00;;
59938;SDS011;45801;51.810;19.444;2023-07-09T14:40:11;3.10;;;1.00;;
59938;SDS011;45801;51.810;19.444;2023-07-09T14:42:38;3.70;;;1.40;;
59938;SDS011;45801;51.810;19.444;2023-07-09T14:45:09;5.60;;;1.60;;
59938;SDS011;45801;51.810;19.444;2023-07-09T14:47:43;2.90;;;1.20;;
59938;SDS011;45801;51.810;19.444;2023-07-09T14:50:09;4.70;;;1.30;;
59938;SDS011;45801;51.810;19.444;2023-07-09T14:52:35;3.10;;;1.30;;
59938;SDS011;45801;51.810;19.444;2023-07-09T14:55:02;5.70;;;1.30;;
59938;SDS011;45801;51.810;19.444;2023-07-09T14:57:29;3.70;;;1.30;;
59938;SDS011;45801;51.810;19.444;2023-07-09T14:59:56;2.60;;;1.00;;
59938;SDS011;45801;51.810;19.444;2023-07-09T15:02:36;3.50;;;1.30;;
59938;SDS011;45801;51.810;19.444;2023-07-09T15:05:09;4.50;;;1.30;;
59938;SDS011;45801;51.810;19.444;2023-07-09T15:07:40;3.60;;;1.30;;
59938;SDS011;45801;51.810;19.444;2023-07-09T15:10:08;4.40;;;1.20;;
59938;SDS011;45801;51.810;19.444;2023-07-09T15:12:38;3.50;;;1.10;;
59938;SDS011;45801;51.810;19.444;2023-07-09T15:17:56;3.60;;;1.20;;
59938;SDS011;45801;51.810;19.444;2023-07-09T15:20:29;3.50;;;1.50;;
59938;SDS011;45801;51.810;19.444;2023-07-09T15:22:57;3.20;;;1.30;;
59938;SDS011;45801;51.810;19.444;2023-07-09T15:25:26;7.00;;;2.50;;
59938;SDS011;45801;51.810;19.444;2023-07-09T15:27:54;8.70;;;4.60;;
59938;SDS011;45801;51.810;19.444;2023-07-09T15:30:25;4.20;;;1.40;;
59938;SDS011;45801;51.810;19.444;2023-07-09T15:32:57;3.90;;;1.10;;